createdAt,value
2023-08-21T11:30:44.270Z,30.32
2023-08-21T11:31:44.322Z,30.31
2023-08-21T11:32:44.278Z,30.47
2023-08-21T11:33:44.311Z,30.63
2023-08-21T11:34:44.269Z,30.77
2023-08-21T11:35:44.281Z,31.15
2023-08-21T11:36:44.263Z,31.10
2023-08-21T11:37:44.292Z,30.88
2023-08-21T11:38:44.584Z,30.81
2023-08-21T11:40:44.262Z,30.85
2023-08-21T11:41:44.508Z,30.75
2023-08-21T11:42:44.819Z,30.80
2023-08-21T11:43:44.248Z,30.78
2023-08-21T11:44:44.273Z,30.85
2023-08-21T11:45:57.260Z,30.91
2023-08-21T11:47:44.337Z,30.94
2023-08-21T11:48:44.284Z,31.14
2023-08-21T11:49:44.275Z,31.34
2023-08-21T11:50:45.753Z,31.43
2023-08-21T11:51:44.268Z,31.65
2023-08-21T11:52:44.253Z,31.73
2023-08-21T11:53:44.315Z,31.52
2023-08-21T11:54:44.267Z,31.62
2023-08-21T11:55:44.259Z,31.54
2023-08-21T11:56:44.256Z,31.54
2023-08-21T11:57:44.672Z,31.36
2023-08-21T11:58:44.258Z,31.31
2023-08-21T11:59:44.673Z,31.25
2023-08-21T12:00:44.269Z,31.29
2023-08-21T12:01:44.291Z,31.10
2023-08-21T12:02:44.271Z,30.97
2023-08-21T12:03:44.356Z,30.80
2023-08-21T12:04:44.691Z,30.65
2023-08-21T12:05:44.482Z,30.63
2023-08-21T12:06:44.273Z,30.57
2023-08-21T12:07:44.268Z,30.63
2023-08-21T12:08:44.276Z,30.78
2023-08-21T12:09:44.264Z,30.87
2023-08-21T12:10:44.266Z,30.97
2023-08-21T12:11:44.414Z,30.97
2023-08-21T12:12:44.264Z,31.06
2023-08-21T12:13:44.276Z,30.90
2023-08-21T12:14:44.271Z,30.68
2023-08-21T12:15:44.313Z,30.50
2023-08-21T12:16:44.278Z,30.46
2023-08-21T12:17:44.661Z,30.54
2023-08-21T12:18:44.280Z,30.62
2023-08-21T12:19:44.302Z,30.83
2023-08-21T12:20:44.273Z,30.80
2023-08-21T12:21:44.292Z,30.46
2023-08-21T12:22:44.273Z,30.43
2023-08-21T12:23:44.348Z,30.43
2023-08-21T12:24:44.492Z,30.39
2023-08-21T12:25:44.318Z,30.23
2023-08-21T12:26:50.909Z,30.23
2023-08-21T12:27:45.645Z,29.93
2023-08-21T12:28:44.269Z,29.81
2023-08-21T12:29:46.417Z,29.69
2023-08-21T12:30:44.286Z,29.65
2023-08-21T12:31:44.409Z,29.57
2023-08-21T12:32:44.337Z,29.42
2023-08-21T12:33:44.371Z,29.35
2023-08-21T12:34:44.286Z,29.42
2023-08-21T12:35:44.409Z,29.50
2023-08-21T12:36:44.273Z,29.56
2023-08-21T12:37:44.495Z,29.56
2023-08-21T12:38:44.509Z,29.65
2023-08-21T12:39:44.685Z,29.69
2023-08-21T12:40:44.300Z,29.71
2023-08-21T12:41:44.344Z,29.69
2023-08-21T12:42:44.709Z,29.71
2023-08-21T12:44:44.314Z,29.69
2023-08-21T12:45:44.303Z,29.50
2023-08-21T12:46:44.581Z,29.45
2023-08-21T12:47:44.303Z,29.41
2023-08-21T12:48:44.475Z,29.29
2023-08-21T12:51:44.304Z,29.39
2023-08-21T12:52:44.267Z,29.42
2023-08-21T12:53:44.274Z,29.38
2023-08-21T12:54:44.320Z,29.54
2023-08-21T12:55:44.450Z,29.79
2023-08-21T12:56:44.321Z,29.79
2023-08-21T12:57:44.263Z,29.93
2023-08-21T12:58:44.300Z,30.10
2023-08-21T12:59:44.309Z,30.19
2023-08-21T13:00:44.287Z,30.35
2023-08-21T13:01:44.295Z,30.32
2023-08-21T13:02:44.301Z,30.46
2023-08-21T13:03:44.655Z,30.46
2023-08-21T13:04:44.294Z,30.48
2023-08-21T13:05:44.273Z,30.66
2023-08-21T13:06:44.466Z,30.53
2023-08-21T13:07:44.303Z,30.46
2023-08-21T13:08:44.352Z,30.43
2023-08-21T13:09:44.500Z,30.39
2023-08-21T13:10:44.298Z,30.37
2023-08-21T13:11:44.287Z,30.32
2023-08-21T13:12:44.305Z,30.25
2023-08-21T13:14:44.282Z,30.19
2023-08-21T13:15:44.358Z,30.25
2023-08-21T13:16:44.479Z,30.32
2023-08-21T13:17:44.304Z,30.37
2023-08-21T13:18:44.291Z,30.30
2023-08-21T13:19:44.265Z,30.23
2023-08-21T13:20:44.300Z,30.18
2023-08-21T13:21:44.299Z,30.18
2023-08-21T13:22:44.301Z,30.16
2023-08-21T13:23:44.413Z,30.15
2023-08-21T13:25:44.271Z,30.35
2023-08-21T13:26:44.309Z,30.47
2023-08-21T13:27:44.296Z,30.54
2023-08-21T13:28:44.292Z,30.46
2023-08-21T13:29:44.663Z,30.57
2023-08-21T13:30:44.312Z,30.70
2023-08-21T13:31:44.301Z,30.68
2023-08-21T13:32:44.504Z,30.61
2023-08-21T13:35:44.277Z,30.43
2023-08-21T13:37:44.268Z,30.69
2023-08-21T13:38:44.332Z,30.80
2023-08-21T13:39:44.493Z,30.81
2023-08-21T13:40:44.306Z,30.77
2023-08-21T13:41:44.302Z,30.53
2023-08-21T13:42:44.300Z,30.46
2023-08-21T13:43:46.185Z,30.39
2023-08-21T13:44:44.325Z,30.32
2023-08-21T13:45:44.268Z,30.35
2023-08-21T13:46:44.319Z,30.39
2023-08-21T13:47:44.687Z,30.43
2023-08-21T13:48:44.327Z,30.39
2023-08-21T13:49:44.616Z,30.43
2023-08-21T13:50:44.271Z,30.37
2023-08-21T13:51:44.299Z,30.44
2023-08-21T13:52:44.276Z,30.27
2023-08-21T13:53:44.345Z,30.37
2023-08-21T13:54:44.306Z,30.21
2023-08-21T13:55:44.313Z,30.12
2023-08-21T13:56:44.272Z,30.15
2023-08-21T13:57:44.263Z,30.21
2023-08-21T13:58:44.510Z,30.16
2023-08-21T13:59:44.309Z,30.09
2023-08-21T14:00:44.354Z,30.23
2023-08-21T14:01:44.605Z,30.35
2023-08-21T14:02:44.316Z,30.40
2023-08-21T14:03:44.327Z,30.44
2023-08-21T14:04:45.006Z,30.55
2023-08-21T14:05:44.307Z,30.66
2023-08-21T14:06:44.607Z,30.65
2023-08-21T14:07:44.510Z,30.62
2023-08-21T14:08:44.293Z,30.72
2023-08-21T14:09:44.279Z,30.66
2023-08-21T14:10:44.276Z,30.65
2023-08-21T14:11:44.286Z,30.65
2023-08-21T14:12:44.670Z,30.81
2023-08-21T14:14:44.826Z,30.81
2023-08-21T14:15:44.278Z,30.81
2023-08-21T14:16:44.606Z,30.91
2023-08-21T14:18:44.471Z,30.81
2023-08-21T14:19:44.293Z,30.50
2023-08-21T14:20:44.300Z,30.47
2023-08-21T14:21:44.281Z,30.43
2023-08-21T14:22:44.485Z,30.55
2023-08-21T14:24:44.308Z,30.73
2023-08-21T14:25:44.579Z,30.77
2023-08-21T14:26:44.318Z,30.75
2023-08-21T14:27:44.314Z,30.90
2023-08-21T14:28:44.303Z,30.97
2023-08-21T14:29:44.308Z,30.88
2023-08-21T14:30:44.382Z,30.96
2023-08-21T14:31:44.276Z,30.69
2023-08-21T14:32:44.438Z,30.65
2023-08-21T14:33:44.496Z,30.57
2023-08-21T14:34:44.299Z,30.65
2023-08-21T14:35:44.303Z,30.70
2023-08-21T14:37:44.326Z,30.66
2023-08-21T14:38:44.267Z,30.77
2023-08-21T14:39:44.459Z,30.84
2023-08-21T14:40:44.278Z,30.88
2023-08-21T14:41:44.303Z,30.88
2023-08-21T14:42:44.701Z,31.00
2023-08-21T14:43:44.297Z,31.09
2023-08-21T14:44:44.274Z,31.17
2023-08-21T14:45:44.269Z,31.24
2023-08-21T14:46:44.292Z,31.28
2023-08-21T14:47:44.317Z,31.21
2023-08-21T14:48:44.302Z,31.14
2023-08-21T14:49:44.280Z,31.17
2023-08-21T14:50:44.276Z,31.21
2023-08-21T14:51:44.608Z,31.15
2023-08-21T14:52:44.337Z,31.27
2023-08-21T14:53:44.278Z,31.24
2023-08-21T14:54:44.273Z,31.27
2023-08-21T14:55:44.276Z,31.27
2023-08-21T14:56:44.277Z,31.28
2023-08-21T14:57:44.302Z,31.36
2023-08-21T14:58:44.342Z,31.39
2023-08-21T14:59:44.367Z,31.29
2023-08-21T15:00:44.490Z,31.22
2023-08-21T15:02:44.481Z,30.99
2023-08-21T15:03:44.547Z,30.87
2023-08-21T15:04:44.275Z,30.83
2023-08-21T15:05:44.294Z,30.80
2023-08-21T15:06:44.714Z,30.77
2023-08-21T15:07:44.317Z,30.87
2023-08-21T15:08:44.332Z,30.81
2023-08-21T15:09:44.523Z,30.84
2023-08-21T15:10:44.291Z,30.78
2023-08-21T15:11:44.320Z,30.68
2023-08-21T15:12:44.620Z,30.66
2023-08-21T15:13:44.533Z,30.77
2023-08-21T15:14:44.283Z,30.73
2023-08-21T15:15:44.316Z,30.69
2023-08-21T15:16:44.528Z,30.66
2023-08-21T15:17:44.657Z,30.62
2023-08-21T15:18:44.289Z,30.61
2023-08-21T15:19:44.617Z,30.66
2023-08-21T15:20:44.292Z,30.65
2023-08-21T15:21:44.339Z,30.59
2023-08-21T15:22:44.314Z,30.63
2023-08-21T15:23:44.342Z,30.55
2023-08-21T15:24:44.651Z,30.62
2023-08-21T15:25:44.323Z,30.55
2023-08-21T15:26:44.938Z,30.57
2023-08-21T15:27:44.293Z,30.51
2023-08-21T15:28:44.631Z,30.47
2023-08-21T15:29:44.312Z,30.53
2023-08-21T15:30:44.341Z,30.53
2023-08-21T15:31:44.562Z,30.54
2023-08-21T15:32:44.324Z,30.50
2023-08-21T15:33:44.559Z,30.51
2023-08-21T15:34:44.326Z,30.43
2023-08-21T15:35:44.634Z,30.40
2023-08-21T15:36:44.303Z,30.48
2023-08-21T15:37:44.363Z,30.34
2023-08-21T15:38:44.338Z,30.37
2023-08-21T15:39:44.308Z,30.35
2023-08-21T15:40:45.346Z,30.31
2023-08-21T15:41:44.311Z,30.32
2023-08-21T15:42:44.496Z,30.40
2023-08-21T15:43:44.338Z,30.28
2023-08-21T15:44:44.298Z,30.24
2023-08-21T15:45:44.730Z,30.23
2023-08-21T15:47:47.990Z,30.13
2023-08-21T15:48:44.331Z,30.19
2023-08-21T15:49:44.297Z,30.19
2023-08-21T15:50:44.326Z,30.23
2023-08-21T15:51:44.333Z,30.19
2023-08-21T15:52:44.304Z,30.05
2023-08-21T15:53:44.521Z,29.91
2023-08-21T15:54:44.288Z,29.86
2023-08-21T15:55:44.318Z,29.60
2023-08-21T15:56:44.708Z,29.50
2023-08-21T15:57:44.707Z,29.32
2023-08-21T15:58:44.528Z,29.22
2023-08-21T15:59:44.287Z,29.14
2023-08-21T16:00:44.323Z,29.12
2023-08-21T16:01:44.742Z,29.05
2023-08-21T16:02:44.915Z,29.05
2023-08-21T16:03:44.769Z,29.10
2023-08-21T16:04:44.650Z,29.12
2023-08-21T16:05:44.298Z,29.05
2023-08-21T16:06:44.287Z,29.10
2023-08-21T16:07:44.342Z,29.07
2023-08-21T16:08:44.528Z,29.10
2023-08-21T16:09:44.539Z,28.98
2023-08-21T16:10:44.340Z,29.01
2023-08-21T16:11:44.284Z,29.13
2023-08-21T16:12:44.333Z,29.10
2023-08-21T16:14:44.502Z,28.98
2023-08-21T16:16:44.908Z,29.04
2023-08-21T16:17:44.348Z,28.97
2023-08-21T16:19:44.328Z,28.89
2023-08-21T16:20:44.288Z,28.88
2023-08-21T16:21:44.303Z,28.85
2023-08-21T16:22:44.325Z,28.82
2023-08-21T16:23:44.309Z,28.76
2023-08-21T16:24:44.773Z,28.60
2023-08-21T16:25:44.322Z,28.70
2023-08-21T16:27:44.317Z,28.69
2023-08-21T16:28:44.306Z,28.62
2023-08-21T16:29:44.293Z,28.54
2023-08-21T16:30:44.261Z,28.60
2023-08-21T16:31:44.317Z,28.52
2023-08-21T16:32:44.310Z,28.52
2023-08-21T16:33:44.299Z,28.54
2023-08-21T16:34:44.496Z,28.54
2023-08-21T16:35:44.594Z,28.54
2023-08-21T16:36:44.606Z,28.51
2023-08-21T16:37:45.506Z,28.47
2023-08-21T16:41:44.692Z,28.29
2023-08-21T16:42:44.253Z,28.33
2023-08-21T16:43:44.264Z,28.30
2023-08-21T16:44:44.584Z,28.25
2023-08-21T16:45:44.526Z,28.15
2023-08-21T16:46:44.239Z,28.17
2023-08-21T16:47:44.486Z,28.17
2023-08-21T16:48:44.287Z,28.17
2023-08-21T16:49:44.270Z,28.05
2023-08-21T16:50:44.276Z,28.10
2023-08-21T16:51:44.272Z,28.11
2023-08-21T16:52:44.485Z,28.04
2023-08-21T16:53:44.272Z,28.12
2023-08-21T16:54:44.598Z,28.08
2023-08-21T16:55:44.271Z,28.08
2023-08-21T16:56:44.283Z,28.04
2023-08-21T16:57:44.270Z,27.90
2023-08-21T16:58:44.251Z,27.85
2023-08-21T16:59:44.228Z,27.83
2023-08-21T17:00:44.555Z,27.89
2023-08-21T17:02:44.523Z,27.78
2023-08-21T17:03:44.288Z,27.74
2023-08-21T17:04:44.260Z,27.68
2023-08-21T17:05:44.648Z,27.67
2023-08-21T17:06:44.217Z,27.51
2023-08-21T17:08:44.242Z,27.54
2023-08-21T17:09:44.258Z,27.44
2023-08-21T17:10:44.215Z,27.40
2023-08-21T17:11:44.251Z,27.35
2023-08-21T17:12:44.470Z,27.30
2023-08-21T17:13:44.251Z,27.33
2023-08-21T17:14:44.231Z,27.40
2023-08-21T17:15:44.251Z,27.32
2023-08-21T17:16:44.447Z,27.25
2023-08-21T17:17:44.304Z,27.15
2023-08-21T17:18:44.199Z,27.18
2023-08-21T17:19:44.222Z,27.26
2023-08-21T17:20:44.231Z,27.22
2023-08-21T17:21:44.258Z,27.17
2023-08-21T17:22:44.230Z,27.17
2023-08-21T17:23:44.419Z,27.12
2023-08-21T17:24:44.243Z,27.15
2023-08-21T17:25:44.220Z,27.17
2023-08-21T17:26:44.212Z,27.17
2023-08-21T17:27:44.635Z,27.10
2023-08-21T17:28:44.218Z,27.11
2023-08-21T17:29:44.184Z,27.12
2023-08-21T17:30:44.170Z,27.03
2023-08-21T17:31:44.500Z,27.05
2023-08-21T17:32:44.629Z,27.03
2023-08-21T17:33:44.406Z,26.95
2023-08-21T17:34:44.165Z,26.99
2023-08-21T17:35:45.116Z,26.99
2023-08-21T17:36:44.204Z,26.99
2023-08-21T17:37:44.182Z,26.95
2023-08-21T17:38:44.360Z,26.92
2023-08-21T17:39:46.249Z,26.89
2023-08-21T17:41:44.276Z,26.92
2023-08-21T17:42:44.276Z,26.89
2023-08-21T17:43:44.172Z,26.78
2023-08-21T17:44:44.692Z,26.81
2023-08-21T17:45:44.371Z,26.74
2023-08-21T17:47:44.169Z,26.80
2023-08-21T17:48:44.377Z,26.83
2023-08-21T17:50:44.185Z,26.75
2023-08-21T17:51:44.151Z,26.81
2023-08-21T17:52:44.159Z,26.77
2023-08-21T17:53:44.132Z,26.77
2023-08-21T17:54:44.152Z,26.74
2023-08-21T17:55:44.124Z,26.74
2023-08-21T17:56:44.154Z,26.73
2023-08-21T17:57:44.187Z,26.77
2023-08-21T17:58:44.126Z,26.70
2023-08-21T17:59:44.119Z,26.63
2023-08-21T18:00:44.437Z,26.66
2023-08-21T18:01:44.322Z,26.62
2023-08-21T18:02:44.154Z,26.55
2023-08-21T18:03:44.412Z,26.58
2023-08-21T18:04:44.425Z,26.59
2023-08-21T18:05:44.150Z,26.48
2023-08-21T18:06:44.102Z,26.51
2023-08-21T18:07:44.643Z,26.52
2023-08-21T18:08:44.770Z,26.47
2023-08-21T18:09:44.109Z,26.48
2023-08-21T18:10:44.143Z,26.48
2023-08-21T18:11:44.315Z,26.41
2023-08-21T18:12:44.105Z,26.45
2023-08-21T18:13:44.330Z,26.38
2023-08-21T18:14:44.120Z,26.36
2023-08-21T18:15:44.083Z,26.36
2023-08-21T18:16:44.153Z,26.38
2023-08-21T18:17:44.165Z,26.26
2023-08-21T18:18:44.317Z,26.33
2023-08-21T18:19:47.049Z,26.29
2023-08-21T18:20:44.307Z,26.23
2023-08-21T18:22:44.296Z,26.15
2023-08-21T18:23:44.111Z,26.16
2023-08-21T18:24:44.207Z,26.09
2023-08-21T18:25:45.629Z,26.15
2023-08-21T18:26:44.104Z,26.03
2023-08-21T18:27:44.342Z,25.98
2023-08-21T18:28:44.091Z,25.95
2023-08-21T18:29:44.096Z,26.05
2023-08-21T18:30:44.409Z,26.07
2023-08-21T18:31:44.081Z,26.00
2023-08-21T18:32:44.082Z,25.99
2023-08-21T18:33:44.409Z,25.98
2023-08-21T18:34:44.088Z,25.93
2023-08-21T18:36:44.410Z,25.88
2023-08-21T18:37:44.054Z,25.88
2023-08-21T18:38:44.097Z,25.91
2023-08-21T18:39:44.083Z,25.87
2023-08-21T18:40:44.066Z,25.85
2023-08-21T18:41:44.235Z,25.85
2023-08-21T18:42:44.062Z,25.87
2023-08-21T18:43:44.062Z,25.72
2023-08-21T18:44:44.293Z,25.73
2023-08-21T18:45:44.150Z,25.75
2023-08-21T18:46:44.252Z,25.72
2023-08-21T18:47:44.083Z,25.69
2023-08-21T18:48:44.066Z,25.63
2023-08-21T18:49:44.031Z,25.65
2023-08-21T18:50:44.061Z,25.66
2023-08-21T18:51:44.374Z,25.60
2023-08-21T18:52:44.623Z,25.70
2023-08-21T18:53:44.042Z,25.62
2023-08-21T18:54:44.026Z,25.55
2023-08-21T18:55:44.761Z,25.62
2023-08-21T18:56:44.025Z,25.58
2023-08-21T18:57:44.016Z,25.62
2023-08-21T18:58:44.010Z,25.51
2023-08-21T18:59:44.199Z,25.55
2023-08-21T19:00:44.233Z,25.51
2023-08-21T19:02:44.255Z,25.43
2023-08-21T19:03:44.148Z,25.48
2023-08-21T19:04:44.035Z,25.50
2023-08-21T19:06:55.861Z,25.46
2023-08-21T19:07:43.972Z,25.46
2023-08-21T19:08:43.969Z,25.36
2023-08-21T19:09:43.993Z,25.35
2023-08-21T19:10:44.161Z,25.38
2023-08-21T19:11:43.998Z,25.29
2023-08-21T19:13:44.308Z,25.16
2023-08-21T19:17:44.048Z,25.17
2023-08-21T19:18:43.992Z,25.16
2023-08-21T19:19:43.985Z,25.07
2023-08-21T19:20:43.965Z,25.10
2023-08-21T19:21:43.925Z,25.10
2023-08-21T19:22:43.930Z,25.16
2023-08-21T19:24:43.991Z,25.11
2023-08-21T19:25:44.111Z,25.06
2023-08-21T19:26:43.945Z,24.99
2023-08-21T19:27:44.318Z,24.96
2023-08-21T19:28:44.146Z,24.99
2023-08-21T19:29:43.946Z,24.85
2023-08-21T19:30:43.920Z,24.95
2023-08-21T19:31:44.004Z,24.89
2023-08-21T19:32:44.118Z,24.88
2023-08-21T19:33:44.111Z,24.86
2023-08-21T19:34:44.115Z,24.92
2023-08-21T19:35:43.885Z,24.85
2023-08-21T19:36:43.930Z,24.84
2023-08-21T19:37:44.319Z,24.78
2023-08-21T19:38:44.242Z,24.74
2023-08-21T19:41:43.898Z,24.66
2023-08-21T19:42:43.890Z,24.63
2023-08-21T19:43:43.903Z,24.61
2023-08-21T19:44:43.883Z,24.57
2023-08-21T19:45:43.936Z,24.54
2023-08-21T19:46:43.850Z,24.50
2023-08-21T19:47:44.066Z,24.47
2023-08-21T19:48:43.859Z,24.39
2023-08-21T19:49:43.876Z,24.35
2023-08-21T19:50:44.350Z,24.35
2023-08-21T19:51:43.928Z,24.38
2023-08-21T19:52:43.831Z,24.23
2023-08-21T19:53:44.063Z,24.26
2023-08-21T19:54:43.833Z,24.28
2023-08-21T19:55:44.217Z,24.24
2023-08-21T19:56:44.058Z,24.13
2023-08-21T19:57:43.863Z,24.20
2023-08-21T19:58:43.813Z,24.10
2023-08-21T19:59:44.162Z,24.08
2023-08-21T20:00:44.027Z,24.02
2023-08-21T20:01:43.833Z,23.98
2023-08-21T20:02:43.873Z,23.98
2023-08-21T20:03:44.204Z,24.01
2023-08-21T20:04:44.011Z,23.95
2023-08-21T20:05:43.838Z,23.98
2023-08-21T20:06:43.820Z,23.87
2023-08-21T20:07:43.845Z,23.86
2023-08-21T20:08:44.008Z,23.86
2023-08-21T20:09:43.794Z,23.80
2023-08-21T20:10:43.815Z,23.77
2023-08-21T20:11:43.815Z,23.84
2023-08-21T20:12:44.012Z,23.84
2023-08-21T20:14:44.103Z,23.66
2023-08-21T20:15:44.063Z,23.65
2023-08-21T20:16:43.793Z,23.65
2023-08-21T20:17:43.756Z,23.62
2023-08-21T20:18:44.294Z,23.61
2023-08-21T20:19:43.797Z,23.65
2023-08-21T20:20:43.795Z,23.62
2023-08-21T20:21:43.789Z,23.59
2023-08-21T20:22:43.822Z,23.50
2023-08-21T20:23:43.739Z,23.51
2023-08-21T20:24:44.253Z,23.47
2023-08-21T20:25:43.726Z,23.36
2023-08-21T20:26:43.727Z,23.44
2023-08-21T20:27:43.841Z,23.40
2023-08-21T20:28:43.719Z,23.40
2023-08-21T20:29:44.090Z,23.40
2023-08-21T20:31:43.784Z,23.36
2023-08-21T20:32:43.766Z,23.34
2023-08-21T20:33:43.708Z,23.31
2023-08-21T20:35:43.691Z,23.32
2023-08-21T20:36:43.737Z,23.31
2023-08-21T20:37:43.751Z,23.39
2023-08-21T20:38:43.935Z,23.44
2023-08-21T20:40:43.679Z,23.34
2023-08-21T20:41:43.673Z,23.34
2023-08-21T20:42:43.689Z,23.31
2023-08-21T20:43:43.881Z,23.31
2023-08-21T20:44:43.709Z,23.36
2023-08-21T20:45:43.725Z,23.34
2023-08-21T20:46:43.722Z,23.27
2023-08-21T20:47:43.981Z,23.31
2023-08-21T20:48:43.666Z,23.36
2023-08-21T20:49:43.684Z,23.28
2023-08-21T20:50:43.672Z,23.21
2023-08-21T20:51:44.085Z,23.27
2023-08-21T20:52:43.638Z,23.31
2023-08-21T20:53:43.638Z,23.31
2023-08-21T20:54:43.663Z,23.24
2023-08-21T20:55:43.650Z,23.23
2023-08-21T20:56:43.624Z,23.18
2023-08-21T20:57:43.799Z,23.34
2023-08-21T20:58:43.825Z,23.23
2023-08-21T20:59:43.629Z,23.25
2023-08-21T21:00:43.664Z,23.23
2023-08-21T21:01:43.629Z,23.24
2023-08-21T21:02:43.633Z,23.20
2023-08-21T21:03:43.619Z,23.12
2023-08-21T21:04:43.708Z,23.12
2023-08-21T21:05:43.599Z,23.10
2023-08-21T21:06:43.606Z,23.03
2023-08-21T21:07:43.921Z,23.06
2023-08-21T21:08:43.601Z,22.99
2023-08-21T21:09:44.928Z,22.91
2023-08-21T21:10:43.803Z,22.96
2023-08-21T21:11:43.665Z,22.93
2023-08-21T21:12:43.581Z,22.91
2023-08-21T21:13:43.586Z,22.91
2023-08-21T21:14:43.573Z,22.87
2023-08-21T21:15:43.571Z,22.81
2023-08-21T21:16:43.575Z,22.81
2023-08-21T21:17:43.745Z,22.81
2023-08-21T21:18:43.558Z,22.73
2023-08-21T21:19:43.558Z,22.80
2023-08-21T21:20:43.555Z,22.76
2023-08-21T21:21:43.741Z,22.81
2023-08-21T21:22:43.577Z,22.76
2023-08-21T21:23:43.536Z,22.76
2023-08-21T21:24:43.546Z,22.81
2023-08-21T21:25:43.554Z,22.76
2023-08-21T21:26:43.737Z,22.76
2023-08-21T21:27:43.531Z,22.81
2023-08-21T21:28:43.519Z,22.81
2023-08-21T21:29:43.512Z,22.85
2023-08-21T21:30:43.547Z,22.80
2023-08-21T21:31:43.509Z,22.81
2023-08-21T21:32:43.524Z,22.85
2023-08-21T21:33:43.523Z,22.85
2023-08-21T21:34:43.497Z,22.83
2023-08-21T21:35:43.689Z,22.81
2023-08-21T21:36:43.549Z,22.78
2023-08-21T21:37:43.632Z,22.87
2023-08-21T21:38:43.475Z,22.80
2023-08-21T21:39:43.527Z,22.73
2023-08-21T21:40:43.483Z,22.69
2023-08-21T21:41:43.464Z,22.66
2023-08-21T21:42:43.481Z,22.62
2023-08-21T21:43:43.460Z,22.53
2023-08-21T21:44:43.450Z,22.50
2023-08-21T21:45:43.449Z,22.50
2023-08-21T21:46:43.542Z,22.53
2023-08-21T21:47:44.125Z,22.47
2023-08-21T21:48:43.437Z,22.39
2023-08-21T21:49:43.442Z,22.51
2023-08-21T21:50:43.467Z,22.57
2023-08-21T21:51:43.423Z,22.50
2023-08-21T21:52:43.422Z,22.57
2023-08-21T21:53:43.449Z,22.41
2023-08-21T21:54:43.417Z,22.35
2023-08-21T21:55:43.412Z,22.35
2023-08-21T21:56:43.405Z,22.22
2023-08-21T21:57:43.425Z,22.20
2023-08-21T21:58:43.417Z,22.20
2023-08-21T21:59:43.432Z,22.17
2023-08-21T22:00:43.399Z,22.22
2023-08-21T22:01:43.490Z,22.22
2023-08-21T22:02:43.509Z,22.18
2023-08-21T22:03:43.427Z,22.26
2023-08-21T22:04:43.377Z,22.18
2023-08-21T22:05:43.377Z,22.22
2023-08-21T22:06:43.414Z,22.20
2023-08-21T22:07:43.363Z,22.17
2023-08-21T22:08:43.580Z,22.06
2023-08-21T22:09:44.376Z,22.04
2023-08-21T22:10:43.373Z,21.95
2023-08-21T22:11:43.372Z,22.00
2023-08-21T22:12:43.348Z,22.02
2023-08-21T22:13:43.354Z,22.00
2023-08-21T22:14:43.369Z,22.00
2023-08-21T22:15:43.339Z,21.98
2023-08-21T22:16:43.337Z,21.93
2023-08-21T22:17:43.747Z,21.93
2023-08-21T22:18:43.320Z,21.91
2023-08-21T22:19:43.323Z,21.92
2023-08-21T22:20:43.316Z,21.92
2023-08-21T22:21:43.310Z,21.77
2023-08-21T22:22:43.313Z,21.76
2023-08-21T22:23:43.305Z,21.72
2023-08-21T22:24:43.301Z,21.73
2023-08-21T22:25:43.303Z,21.73
2023-08-21T22:26:43.294Z,21.76
2023-08-21T22:27:43.293Z,21.72
2023-08-21T22:28:43.281Z,21.75
2023-08-21T22:29:43.279Z,21.70
2023-08-21T22:30:43.296Z,21.75
2023-08-21T22:31:43.399Z,21.77
2023-08-21T22:32:43.507Z,21.76
2023-08-21T22:33:43.258Z,21.70
2023-08-21T22:34:43.260Z,21.62
2023-08-21T22:35:43.257Z,21.70
2023-08-21T22:36:43.252Z,21.70
2023-08-21T22:37:43.258Z,21.66
2023-08-21T22:38:43.262Z,21.66
2023-08-21T22:39:43.239Z,21.60
2023-08-21T22:40:43.236Z,21.62
2023-08-21T22:41:43.237Z,21.62
2023-08-21T22:42:43.233Z,21.54
2023-08-21T22:43:43.220Z,21.55
2023-08-21T22:44:43.262Z,21.54
2023-08-21T22:45:43.260Z,21.55
2023-08-21T22:46:43.235Z,21.57
2023-08-21T22:47:43.568Z,21.57
2023-08-21T22:48:43.229Z,21.57
2023-08-21T22:49:43.195Z,21.55
2023-08-21T22:50:43.201Z,21.54
2023-08-21T22:51:43.201Z,21.57
2023-08-21T22:52:43.187Z,21.52
2023-08-21T22:53:43.185Z,21.60
2023-08-21T22:54:43.266Z,21.50
2023-08-21T22:55:43.210Z,21.55
2023-08-21T22:56:43.188Z,21.54
2023-08-21T22:57:45.031Z,21.55
2023-08-21T22:58:43.194Z,21.54
2023-08-21T22:59:43.157Z,21.52
2023-08-21T23:00:43.151Z,21.50
2023-08-21T23:01:43.188Z,21.45
2023-08-21T23:02:43.424Z,21.51
2023-08-21T23:03:43.140Z,21.42
2023-08-21T23:04:43.157Z,21.42
2023-08-21T23:05:43.220Z,21.46
2023-08-21T23:06:43.216Z,21.42
2023-08-21T23:07:43.128Z,21.36
2023-08-21T23:08:43.130Z,21.42
2023-08-21T23:09:43.114Z,21.39
2023-08-21T23:10:43.124Z,21.32
2023-08-21T23:11:43.107Z,21.37
2023-08-21T23:12:43.105Z,21.33
2023-08-21T23:13:43.096Z,21.33
2023-08-21T23:14:43.088Z,21.27
2023-08-21T23:15:43.192Z,21.25
2023-08-21T23:16:43.097Z,21.30
2023-08-21T23:17:43.450Z,21.35
2023-08-21T23:18:43.113Z,21.36
2023-08-21T23:19:43.076Z,21.33
2023-08-21T23:20:43.073Z,21.29
2023-08-21T23:21:43.063Z,21.33
2023-08-21T23:22:43.096Z,21.29
2023-08-21T23:23:43.078Z,21.20
2023-08-21T23:24:43.114Z,21.18
2023-08-21T23:25:43.736Z,21.20
2023-08-21T23:27:43.697Z,21.18
2023-08-21T23:28:43.552Z,21.09
2023-08-21T23:29:43.452Z,21.11
2023-08-21T23:30:43.027Z,21.06
2023-08-21T23:31:43.108Z,21.06
2023-08-21T23:32:43.012Z,21.07
2023-08-21T23:33:43.251Z,20.96
2023-08-21T23:34:43.024Z,20.97
2023-08-21T23:35:43.016Z,20.99
2023-08-21T23:36:43.007Z,20.99
2023-08-21T23:37:43.220Z,21.00
2023-08-21T23:38:42.992Z,21.03
2023-08-21T23:39:43.004Z,20.99
2023-08-21T23:40:42.993Z,20.99
2023-08-21T23:41:42.988Z,20.93
2023-08-21T23:42:42.992Z,20.87
2023-08-21T23:43:42.977Z,20.93
2023-08-21T23:44:42.976Z,20.90
2023-08-21T23:45:42.974Z,20.84
2023-08-21T23:46:43.021Z,20.80
2023-08-21T23:47:44.476Z,20.81
2023-08-21T23:48:43.062Z,20.78
2023-08-21T23:49:42.942Z,20.80
2023-08-21T23:50:42.990Z,20.77
2023-08-21T23:51:43.168Z,20.74
2023-08-21T23:52:42.937Z,20.78
2023-08-21T23:53:42.930Z,20.82
2023-08-21T23:54:42.920Z,20.88
2023-08-21T23:55:43.130Z,20.84
2023-08-21T23:56:42.916Z,20.78
2023-08-21T23:57:43.020Z,20.84
2023-08-21T23:58:42.901Z,20.80
2023-08-21T23:59:42.913Z,20.84
